createdAt,value
2019-03-06T00:02:08.395Z,5.00
2019-03-06T00:04:38.873Z,5.00
2019-03-06T00:07:08.829Z,4.90
2019-03-06T00:09:38.749Z,5.10
2019-03-06T00:12:08.776Z,5.00
2019-03-06T00:14:39.108Z,4.80
2019-03-06T00:17:09.354Z,5.10
2019-03-06T00:19:39.306Z,5.90
2019-03-06T00:22:09.319Z,4.80
2019-03-06T00:24:39.343Z,5.00
2019-03-06T00:27:09.348Z,6.80
2019-03-06T00:29:39.305Z,5.00
2019-03-06T00:32:09.322Z,5.10
2019-03-06T00:34:40.161Z,5.30
2019-03-06T00:37:10.235Z,5.10
2019-03-06T00:39:41.894Z,5.10
2019-03-06T00:42:11.940Z,5.00
2019-03-06T00:44:41.948Z,5.10
2019-03-06T00:47:11.981Z,5.10
2019-03-06T00:49:42.186Z,5.10
2019-03-06T00:52:12.207Z,5.10
2019-03-06T00:54:42.300Z,5.10
2019-03-06T00:57:12.399Z,5.00
2019-03-06T00:59:42.432Z,5.10
2019-03-06T01:02:12.472Z,5.00
2019-03-06T01:04:42.532Z,5.00
2019-03-06T01:07:12.581Z,5.10
2019-03-06T01:09:42.548Z,5.10
2019-03-06T01:12:14.424Z,5.10
2019-03-06T01:14:44.451Z,5.00
2019-03-06T01:17:14.516Z,5.10
2019-03-06T01:19:44.601Z,5.10
2019-03-06T01:22:15.749Z,5.10
2019-03-06T01:24:45.801Z,5.10
2019-03-06T01:27:15.993Z,5.10
2019-03-06T01:29:46.017Z,5.10
2019-03-06T01:32:16.054Z,5.20
2019-03-06T01:35:05.108Z,5.30
2019-03-06T01:37:36.817Z,5.20
2019-03-06T01:40:10.861Z,5.90
2019-03-06T01:42:42.661Z,5.10
2019-03-06T01:47:42.418Z,5.50
2019-03-06T01:50:12.672Z,5.60
2019-03-06T01:52:42.673Z,5.20
2019-03-06T01:55:13.945Z,5.20
2019-03-06T01:57:43.980Z,5.20
2019-03-06T02:00:16.941Z,5.20
2019-03-06T02:02:46.964Z,5.20
2019-03-06T02:05:17.261Z,4.80
2019-03-06T02:07:47.337Z,4.90
2019-03-06T02:10:17.544Z,5.10
2019-03-06T02:12:48.685Z,5.20
2019-03-06T02:15:19.087Z,4.90
2019-03-06T02:17:49.214Z,5.30
2019-03-06T02:25:18.581Z,5.20
2019-03-06T02:27:48.645Z,5.30
2019-03-06T02:30:21.804Z,5.30
2019-03-06T02:32:51.849Z,5.40
2019-03-06T02:35:22.765Z,5.50
2019-03-06T02:37:52.810Z,5.40
2019-03-06T02:40:22.871Z,5.40
2019-03-06T02:42:52.901Z,5.40
2019-03-06T02:45:22.961Z,5.40
2019-03-06T02:47:53.004Z,5.40
2019-03-06T02:55:22.630Z,5.50
2019-03-06T02:58:10.700Z,5.80
2019-03-06T03:00:54.410Z,5.50
2019-03-06T03:03:26.113Z,5.50
2019-03-06T03:05:57.846Z,5.50
2019-03-06T03:08:27.895Z,5.50
2019-03-06T03:10:58.218Z,5.70
2019-03-06T03:13:28.232Z,5.50
2019-03-06T03:15:58.338Z,5.40
2019-03-06T03:18:28.455Z,5.50
2019-03-06T03:20:58.762Z,5.60
2019-03-06T03:23:28.897Z,5.60
2019-03-06T03:25:58.992Z,6.40
2019-03-06T03:28:29.015Z,5.40
2019-03-06T03:30:59.059Z,5.60
2019-03-06T03:33:29.904Z,6.50
2019-03-06T03:36:00.730Z,5.70
2019-03-06T03:38:31.745Z,5.80
2019-03-06T03:46:01.425Z,5.60
2019-03-06T03:48:31.465Z,5.50
2019-03-06T03:51:01.560Z,5.30
2019-03-06T03:58:30.943Z,5.60
2019-03-06T04:01:00.918Z,5.50
2019-03-06T04:03:31.021Z,4.90
2019-03-06T04:06:01.084Z,5.30
2019-03-06T04:08:32.078Z,5.40
2019-03-06T04:13:31.801Z,5.80
2019-03-06T04:16:02.019Z,5.70
2019-03-06T04:18:32.044Z,5.30
2019-03-06T04:21:02.418Z,5.20
2019-03-06T04:23:32.462Z,5.50
2019-03-06T04:26:02.518Z,5.20
2019-03-06T04:28:32.525Z,5.20
2019-03-06T04:31:02.628Z,4.80
2019-03-06T04:33:32.851Z,5.10
2019-03-06T04:36:03.657Z,4.70
2019-03-06T04:38:33.655Z,4.90
2019-03-06T04:41:03.893Z,4.60
2019-03-06T04:43:33.967Z,5.10
2019-03-06T04:46:03.963Z,4.90
2019-03-06T04:48:33.930Z,4.50
2019-03-06T04:53:34.320Z,4.90
2019-03-06T04:56:04.336Z,4.70
2019-03-06T05:01:05.039Z,4.10
2019-03-06T05:03:35.084Z,4.80
2019-03-06T05:06:05.089Z,5.00
2019-03-06T05:11:05.931Z,4.90
2019-03-06T05:13:36.036Z,5.10
2019-03-06T05:16:06.059Z,5.00
2019-03-06T05:21:09.934Z,4.70
2019-03-06T05:23:39.969Z,4.70
2019-03-06T05:26:10.071Z,4.50
2019-03-06T05:28:40.087Z,4.70
2019-03-06T05:31:10.410Z,4.80
2019-03-06T05:33:40.332Z,4.10
2019-03-06T05:36:20.193Z,4.90
2019-03-06T05:46:20.343Z,4.80
2019-03-06T05:48:50.491Z,4.70
2019-03-06T05:51:20.492Z,5.10
2019-03-06T05:53:50.518Z,5.00
2019-03-06T05:56:20.496Z,4.70
2019-03-06T05:58:50.520Z,5.10
2019-03-06T06:01:20.440Z,4.60
2019-03-06T06:03:50.590Z,4.70
2019-03-06T06:13:49.736Z,5.30
2019-03-06T06:16:19.758Z,5.00
2019-03-06T06:26:28.225Z,5.20
2019-03-06T06:28:58.256Z,5.30
2019-03-06T06:36:28.197Z,5.50
2019-03-06T06:41:27.739Z,5.70
2019-03-06T06:48:57.264Z,5.40
2019-03-06T06:54:19.666Z,5.40
2019-03-06T06:57:12.385Z,5.90
2019-03-06T06:59:53.763Z,6.00
2019-03-06T07:03:03.815Z,5.90
2019-03-06T07:08:16.043Z,6.00
2019-03-06T07:16:32.055Z,6.40
2019-03-06T07:19:20.022Z,6.40
2019-03-06T07:21:51.646Z,6.50
2019-03-06T07:24:23.276Z,6.50
2019-03-06T07:27:20.476Z,6.80
2019-03-06T07:29:54.777Z,6.90
2019-03-06T07:32:26.395Z,6.90
2019-03-06T07:35:53.513Z,6.90
2019-03-06T07:38:24.591Z,7.10
2019-03-06T07:41:14.739Z,7.10
2019-03-06T07:43:46.420Z,7.20
2019-03-06T07:46:27.231Z,7.10
2019-03-06T07:49:15.577Z,7.10
2019-03-06T07:51:47.173Z,7.20
2019-03-06T07:54:18.856Z,7.30
2019-03-06T07:56:53.272Z,7.50
2019-03-06T07:59:23.287Z,7.70
2019-03-06T08:02:13.753Z,7.60
2019-03-06T08:04:54.311Z,7.90
2019-03-06T08:07:24.281Z,7.80
2019-03-06T08:09:56.971Z,7.90
2019-03-06T08:12:28.600Z,8.00
2019-03-06T08:15:09.685Z,8.30
2019-03-06T08:17:53.431Z,8.10
2019-03-06T08:20:40.327Z,8.50
2019-03-06T08:23:11.935Z,8.00
2019-03-06T08:25:44.178Z,8.10
2019-03-06T08:28:14.950Z,8.40
2019-03-06T08:30:49.498Z,8.40
2019-03-06T08:33:19.466Z,8.30
2019-03-06T08:35:49.488Z,8.70
2019-03-06T08:38:19.445Z,8.80
2019-03-06T08:40:50.183Z,8.60
2019-03-06T08:43:20.207Z,8.60
2019-03-06T08:45:54.699Z,8.80
2019-03-06T08:48:31.601Z,8.90
2019-03-06T08:51:12.464Z,9.10
2019-03-06T08:53:53.461Z,9.30
2019-03-06T08:56:37.367Z,9.50
2019-03-06T08:59:09.265Z,9.60
2019-03-06T09:01:59.734Z,10.00
2019-03-06T09:04:24.349Z,9.70
2019-03-06T09:06:56.186Z,9.50
2019-03-06T09:09:27.912Z,9.60
2019-03-06T09:12:08.551Z,9.60
2019-03-06T09:14:56.725Z,10.20
2019-03-06T09:17:28.383Z,10.40
2019-03-06T09:20:05.816Z,10.50
2019-03-06T09:22:46.319Z,10.60
2019-03-06T09:25:36.101Z,10.30
2019-03-06T09:28:13.909Z,10.30
2019-03-06T09:30:45.626Z,10.40
2019-03-06T09:33:17.211Z,10.50
2019-03-06T09:35:48.812Z,10.40
2019-03-06T09:38:36.954Z,10.90
2019-03-06T09:41:09.417Z,10.60
2019-03-06T09:43:56.349Z,10.50
2019-03-06T09:46:28.023Z,10.50
2019-03-06T09:52:00.548Z,10.60
2019-03-06T09:54:35.918Z,10.90
2019-03-06T09:57:19.464Z,10.60
2019-03-06T09:59:59.833Z,10.80
2019-03-06T10:02:47.649Z,10.60
2019-03-06T10:05:34.377Z,10.50
2019-03-06T10:08:18.132Z,10.80
2019-03-06T10:10:57.282Z,11.00
2019-03-06T10:13:23.210Z,11.60
2019-03-06T10:16:11.304Z,12.00
2019-03-06T10:18:52.288Z,13.70
2019-03-06T10:21:22.367Z,13.90
2019-03-06T10:23:52.682Z,14.30
2019-03-06T10:26:23.000Z,14.60
2019-03-06T10:28:53.017Z,13.00
2019-03-06T10:31:23.059Z,12.00
2019-03-06T10:33:53.096Z,12.00
2019-03-06T10:36:23.150Z,12.40
2019-03-06T10:38:53.163Z,13.50
2019-03-06T10:41:25.618Z,14.60
2019-03-06T10:43:55.621Z,15.10
2019-03-06T10:46:25.662Z,15.50
2019-03-06T10:48:55.836Z,16.90
2019-03-06T10:51:26.090Z,19.20
2019-03-06T10:53:56.099Z,20.50
2019-03-06T10:56:26.323Z,19.40
2019-03-06T10:58:56.975Z,18.00
2019-03-06T11:01:27.175Z,18.90
2019-03-06T11:04:15.118Z,21.00
2019-03-06T11:06:45.516Z,21.40
2019-03-06T11:09:15.527Z,18.50
2019-03-06T11:11:45.546Z,15.90
2019-03-06T11:14:15.590Z,16.60
2019-03-06T11:16:45.611Z,18.20
2019-03-06T11:19:16.197Z,19.30
2019-03-06T11:21:46.270Z,19.40
2019-03-06T11:24:16.234Z,22.50
2019-03-06T11:26:46.601Z,19.30
2019-03-06T11:29:16.604Z,19.60
2019-03-06T11:31:46.801Z,20.80
2019-03-06T11:34:17.502Z,22.00
2019-03-06T11:36:47.776Z,23.10
2019-03-06T11:39:17.967Z,23.20
2019-03-06T11:41:48.851Z,23.90
2019-03-06T11:44:18.876Z,22.30
2019-03-06T11:46:48.945Z,21.70
2019-03-06T11:49:18.982Z,20.20
2019-03-06T11:51:49.168Z,18.60
2019-03-06T11:54:20.991Z,19.30
2019-03-06T11:56:50.944Z,21.60
2019-03-06T11:59:21.368Z,23.10
2019-03-06T12:01:51.453Z,22.70
2019-03-06T12:04:21.484Z,18.90
2019-03-06T12:06:51.545Z,16.50
2019-03-06T12:09:26.910Z,15.30
2019-03-06T12:12:00.124Z,15.70
2019-03-06T12:14:30.615Z,16.80
2019-03-06T12:17:00.903Z,15.30
2019-03-06T12:19:30.970Z,15.60
2019-03-06T12:22:01.318Z,16.50
2019-03-06T12:24:31.406Z,20.20
2019-03-06T12:27:01.414Z,23.30
2019-03-06T12:29:31.473Z,24.00
2019-03-06T12:32:01.623Z,25.80
2019-03-06T12:34:31.679Z,24.50
2019-03-06T12:37:01.685Z,23.50
2019-03-06T12:39:32.077Z,25.90
2019-03-06T12:42:02.830Z,26.80
2019-03-06T12:44:34.088Z,22.60
2019-03-06T12:47:04.262Z,21.80
2019-03-06T12:49:34.332Z,20.90
2019-03-06T12:52:04.475Z,23.30
2019-03-06T12:54:34.485Z,24.30
2019-03-06T12:57:04.850Z,24.80
2019-03-06T12:59:34.777Z,25.60
2019-03-06T13:02:04.724Z,26.50
2019-03-06T13:04:34.690Z,21.50
2019-03-06T13:07:04.714Z,24.30
2019-03-06T13:09:34.792Z,24.20
2019-03-06T13:14:33.990Z,25.30
2019-03-06T13:17:03.692Z,24.80
2019-03-06T13:22:11.074Z,27.40
2019-03-06T13:24:38.671Z,28.30
2019-03-06T13:27:08.580Z,28.70
2019-03-06T13:29:38.300Z,28.90
2019-03-06T13:32:11.798Z,29.50
2019-03-06T13:34:39.685Z,29.40
2019-03-06T13:37:09.379Z,28.80
2019-03-06T13:39:41.119Z,28.80
2019-03-06T13:42:12.619Z,28.10
2019-03-06T13:44:42.398Z,27.00
2019-03-06T13:47:14.114Z,26.60
2019-03-06T13:49:43.925Z,26.10
2019-03-06T13:52:13.999Z,26.20
2019-03-06T13:54:43.696Z,25.90
2019-03-06T13:57:14.081Z,26.40
2019-03-06T13:59:43.844Z,26.70
2019-03-06T14:02:14.679Z,27.20
2019-03-06T14:04:44.423Z,27.20
2019-03-06T14:07:14.434Z,27.30
2019-03-06T14:09:44.144Z,27.40
2019-03-06T14:12:14.128Z,27.90
2019-03-06T14:14:43.905Z,28.00
2019-03-06T14:17:13.608Z,28.50
2019-03-06T14:19:43.340Z,28.80
2019-03-06T14:22:12.964Z,27.70
2019-03-06T14:24:42.729Z,26.20
2019-03-06T14:27:12.664Z,25.60
2019-03-06T14:29:42.356Z,26.50
2019-03-06T14:32:14.930Z,26.50
2019-03-06T14:34:43.581Z,27.00
2019-03-06T14:37:13.341Z,27.10
2019-03-06T14:39:43.035Z,27.60
2019-03-06T14:42:13.580Z,27.40
2019-03-06T14:44:43.307Z,27.50
2019-03-06T14:47:14.643Z,26.80
2019-03-06T14:49:44.350Z,26.00
2019-03-06T14:52:14.078Z,25.80
2019-03-06T14:54:44.348Z,23.40
2019-03-06T14:57:14.237Z,22.20
2019-03-06T14:59:43.945Z,21.40
2019-03-06T15:02:14.007Z,21.00
2019-03-06T15:04:43.952Z,20.20
2019-03-06T15:07:13.644Z,20.40
2019-03-06T15:09:43.421Z,21.40
2019-03-06T15:12:13.283Z,22.40
2019-03-06T15:14:42.980Z,23.40
2019-03-06T15:17:12.903Z,23.40
2019-03-06T15:19:42.606Z,23.50
2019-03-06T15:24:41.999Z,21.90
2019-03-06T15:27:11.909Z,21.70
2019-03-06T15:29:42.122Z,21.40
2019-03-06T15:32:12.111Z,21.20
2019-03-06T15:34:42.253Z,19.60
2019-03-06T15:42:13.596Z,18.00
2019-03-06T15:44:43.595Z,16.90
2019-03-06T15:47:13.703Z,16.20
2019-03-06T15:52:13.286Z,15.80
2019-03-06T15:54:43.298Z,15.40
2019-03-06T15:57:15.666Z,15.00
2019-03-06T15:59:45.673Z,14.60
2019-03-06T16:02:15.955Z,14.40
2019-03-06T16:04:46.030Z,14.00
2019-03-06T16:07:17.470Z,13.60
2019-03-06T16:09:48.617Z,13.00
2019-03-06T16:14:49.440Z,13.20
2019-03-06T16:17:21.191Z,13.50
2019-03-06T16:19:51.111Z,13.00
2019-03-06T16:22:22.095Z,12.30
2019-03-06T16:24:52.463Z,12.00
2019-03-06T16:27:22.528Z,12.20
2019-03-06T16:29:52.540Z,11.70
2019-03-06T16:32:22.484Z,11.80
2019-03-06T16:34:52.623Z,11.40
2019-03-06T16:37:22.690Z,11.50
2019-03-06T16:39:52.702Z,11.40
2019-03-06T16:42:23.506Z,11.30
2019-03-06T16:44:53.524Z,11.00
2019-03-06T16:47:23.943Z,11.00
2019-03-06T16:49:54.016Z,11.00
2019-03-06T16:52:24.062Z,10.90
2019-03-06T16:54:54.168Z,11.00
2019-03-06T16:57:24.223Z,10.70
2019-03-06T17:02:24.152Z,10.40
2019-03-06T17:04:54.328Z,10.70
2019-03-06T17:07:24.478Z,11.10
2019-03-06T17:09:54.502Z,10.30
2019-03-06T17:12:24.593Z,10.50
2019-03-06T17:14:54.604Z,10.40
2019-03-06T17:17:24.728Z,10.30
2019-03-06T17:19:54.927Z,10.10
2019-03-06T17:22:25.263Z,10.20
2019-03-06T17:27:25.310Z,9.80
2019-03-06T17:29:55.507Z,10.70
2019-03-06T17:32:25.520Z,9.80
2019-03-06T17:34:55.511Z,9.80
2019-03-06T17:37:25.770Z,9.80
2019-03-06T17:39:56.034Z,9.80
2019-03-06T17:42:26.254Z,9.70
2019-03-06T17:44:57.125Z,9.70
2019-03-06T17:47:27.246Z,9.60
2019-03-06T17:49:57.258Z,9.60
2019-03-06T17:54:58.353Z,9.40
2019-03-06T17:57:28.386Z,9.50
2019-03-06T17:59:58.451Z,9.30
2019-03-06T18:04:59.390Z,9.20
2019-03-06T18:07:29.702Z,9.50
2019-03-06T18:09:59.734Z,9.40
2019-03-06T18:12:29.778Z,8.80
2019-03-06T18:19:59.323Z,9.10
2019-03-06T18:27:28.606Z,8.80
2019-03-06T18:29:58.590Z,8.90
2019-03-06T18:32:28.615Z,8.60
2019-03-06T18:34:58.620Z,8.80
2019-03-06T18:37:28.556Z,8.80
2019-03-06T18:39:58.531Z,9.00
2019-03-06T18:42:28.608Z,8.60
2019-03-06T18:44:58.600Z,8.60
2019-03-06T18:49:58.615Z,8.40
2019-03-06T18:52:28.635Z,8.30
2019-03-06T18:54:58.784Z,8.30
2019-03-06T18:57:28.907Z,8.10
2019-03-06T18:59:59.066Z,7.70
2019-03-06T19:02:29.198Z,8.00
2019-03-06T19:04:59.411Z,8.10
2019-03-06T19:07:29.453Z,8.00
2019-03-06T19:09:59.465Z,7.40
2019-03-06T19:12:30.602Z,7.60
2019-03-06T19:15:01.663Z,7.60
2019-03-06T19:17:33.524Z,7.40
2019-03-06T19:20:03.781Z,8.10
2019-03-06T19:22:33.824Z,7.50
2019-03-06T19:25:06.235Z,7.50
2019-03-06T19:27:36.533Z,7.60
2019-03-06T19:30:15.248Z,7.40
2019-03-06T19:32:46.654Z,7.40
2019-03-06T19:42:47.917Z,7.60
2019-03-06T19:45:20.299Z,7.30
2019-03-06T19:47:51.433Z,6.60
2019-03-06T19:50:25.411Z,6.70
2019-03-06T19:52:56.869Z,6.90
2019-03-06T19:58:05.355Z,6.90
2019-03-06T20:00:36.031Z,7.10
2019-03-06T20:05:41.141Z,7.30
2019-03-06T20:08:15.245Z,7.00
2019-03-06T20:10:45.291Z,6.90
2019-03-06T20:15:45.053Z,6.70
2019-03-06T20:18:15.064Z,7.00
2019-03-06T20:23:15.875Z,6.90
2019-03-06T20:25:46.183Z,6.90
2019-03-06T20:28:16.616Z,6.90
2019-03-06T20:30:46.724Z,6.80
2019-03-06T20:33:16.742Z,6.50
2019-03-06T20:35:46.824Z,6.20
2019-03-06T20:38:16.900Z,6.30
2019-03-06T20:40:49.124Z,7.30
2019-03-06T20:43:19.262Z,6.60
2019-03-06T20:45:49.296Z,6.70
2019-03-06T20:48:19.724Z,6.70
2019-03-06T20:50:49.764Z,6.80
2019-03-06T20:53:19.820Z,6.70
2019-03-06T20:55:49.877Z,6.60
2019-03-06T20:58:20.233Z,6.60
2019-03-06T21:00:51.346Z,6.40
2019-03-06T21:03:22.059Z,6.30
2019-03-06T21:05:52.521Z,6.10
2019-03-06T21:10:52.774Z,6.00
2019-03-06T21:13:22.799Z,5.50
2019-03-06T21:15:52.852Z,5.80
2019-03-06T21:18:22.885Z,5.80
2019-03-06T21:20:52.928Z,5.80
2019-03-06T21:23:22.954Z,5.80
2019-03-06T21:25:53.295Z,5.80
2019-03-06T21:28:23.368Z,5.90
2019-03-06T21:30:53.491Z,5.90
2019-03-06T21:33:23.522Z,5.80
2019-03-06T21:35:53.924Z,5.90
2019-03-06T21:38:25.095Z,5.90
2019-03-06T21:40:55.349Z,5.90
2019-03-06T21:43:25.365Z,5.70
2019-03-06T21:45:55.399Z,5.70
2019-03-06T21:48:25.574Z,5.90
2019-03-06T21:50:56.129Z,5.90
2019-03-06T21:53:26.168Z,5.80
2019-03-06T21:55:56.240Z,5.70
2019-03-06T21:58:26.281Z,5.90
2019-03-06T22:00:56.338Z,5.80
2019-03-06T22:03:26.358Z,5.80
2019-03-06T22:05:56.523Z,5.80
2019-03-06T22:08:26.534Z,5.90
2019-03-06T22:10:57.118Z,5.80
2019-03-06T22:13:27.136Z,5.80
2019-03-06T22:15:57.712Z,5.80
2019-03-06T22:18:27.836Z,5.80
2019-03-06T22:25:59.242Z,5.90
2019-03-06T22:28:29.311Z,5.90
2019-03-06T22:30:59.632Z,6.00
2019-03-06T22:35:59.260Z,5.50
2019-03-06T22:38:29.295Z,5.90
2019-03-06T22:40:59.363Z,5.70
2019-03-06T22:43:29.379Z,5.70
2019-03-06T22:45:59.711Z,5.80
2019-03-06T22:50:59.231Z,5.90
2019-03-06T22:53:29.727Z,6.00
2019-03-06T22:55:59.768Z,6.00
2019-03-06T22:58:29.806Z,5.90
2019-03-06T23:01:04.003Z,5.90
2019-03-06T23:03:35.120Z,5.90
2019-03-06T23:06:06.016Z,5.90
2019-03-06T23:08:36.086Z,6.00
2019-03-06T23:16:07.383Z,5.90
2019-03-06T23:21:07.042Z,6.00
2019-03-06T23:28:36.321Z,5.80
2019-03-06T23:31:06.491Z,5.80
2019-03-06T23:33:36.839Z,6.00
2019-03-06T23:36:06.873Z,5.90
2019-03-06T23:38:36.992Z,6.10
2019-03-06T23:41:07.100Z,5.90
2019-03-06T23:43:37.103Z,6.20
2019-03-06T23:46:07.117Z,6.10
2019-03-06T23:48:37.323Z,6.20
2019-03-06T23:51:09.525Z,6.00
2019-03-06T23:53:50.348Z,5.80
2019-03-06T23:56:20.446Z,5.60
